createdAt,value
2022-12-17T00:01:48.857Z,8.11371237458194
2022-12-17T00:08:11.925Z,8.26086956521739
2022-12-17T00:19:28.616Z,9.672240802675585
2022-12-17T00:25:47.619Z,9.08695652173913
2022-12-17T00:41:47.672Z,10.14046822742475
2022-12-17T00:48:08.345Z,8.147157190635452
2022-12-17T01:02:38.361Z,9.364548494983278
2022-12-17T01:09:18.078Z,9.792642140468228
2022-12-17T01:15:39.445Z,8.076923076923077
2022-12-17T01:22:01.008Z,9.110367892976589
2022-12-17T01:28:26.127Z,8.2876254180602
2022-12-17T01:34:48.686Z,8.869565217391305
2022-12-17T01:41:10.932Z,7.936454849498328
2022-12-17T01:48:34.931Z,8.217391304347826
2022-12-17T01:55:02.318Z,7.926421404682274
2022-12-17T02:01:24.481Z,8.51505016722408
2022-12-17T02:11:09.455Z,9.59866220735786
2022-12-17T02:17:32.690Z,8.722408026755852
2022-12-17T02:23:58.157Z,9.785953177257525
2022-12-17T02:31:20.294Z,9.775919732441471
2022-12-17T02:44:57.726Z,10.62876254180602
2022-12-17T02:55:41.313Z,8.849498327759198
2022-12-17T03:11:26.648Z,8.806020066889632
2022-12-17T03:17:49.004Z,7.414715719063545
2022-12-17T03:24:11.724Z,7.702341137123746
2022-12-17T03:30:36.345Z,8.301003344481606
2022-12-17T03:46:54.467Z,7.839464882943144
2022-12-17T03:55:24.424Z,8.705685618729097
2022-12-17T04:01:47.029Z,9.956521739130435
2022-12-17T04:08:08.178Z,8.986622073578594
2022-12-17T04:15:55.315Z,8.347826086956522
2022-12-17T04:25:59.832Z,8.11371237458194
2022-12-17T04:32:35.534Z,8.615384615384615
2022-12-17T04:38:57.468Z,8.40133779264214
2022-12-17T04:45:17.970Z,7.555183946488294
2022-12-17T04:51:40.095Z,8.518394648829432
2022-12-17T04:58:02.068Z,7.3244147157190636
2022-12-17T05:08:22.119Z,7.217391304347826
2022-12-17T05:14:43.527Z,8.481605351170568
2022-12-17T05:21:05.739Z,7.053511705685619
2022-12-17T05:27:29.136Z,9.675585284280936
2022-12-17T05:33:51.573Z,10.053511705685619
2022-12-17T05:45:57.325Z,9.37123745819398
2022-12-17T05:57:07.272Z,11.150501672240802
2022-12-17T06:03:28.860Z,9.665551839464882
2022-12-17T06:26:10.490Z,10.090301003344482
2022-12-17T06:32:31.403Z,10.531772575250836
2022-12-17T06:42:14.289Z,11.147157190635452
2022-12-17T06:51:15.235Z,12.247491638795987
2022-12-17T07:00:36.553Z,11.444816053511706
2022-12-17T07:07:51.963Z,12.478260869565217
2022-12-17T07:14:17.536Z,13.036789297658864
2022-12-17T07:20:42.307Z,14.421404682274247
2022-12-17T07:27:08.889Z,12.321070234113712
2022-12-17T07:33:36.971Z,11.73913043478261
2022-12-17T07:40:04.442Z,15.464882943143813
2022-12-17T07:47:41.067Z,13.68561872909699
2022-12-17T07:54:07.114Z,14.62876254180602
2022-12-17T08:06:31.520Z,13.976588628762542
2022-12-17T08:14:46.415Z,12.441471571906355
2022-12-17T08:21:13.265Z,12.424749163879598
2022-12-17T08:36:02.549Z,11.481605351170568
2022-12-17T08:50:29.588Z,13.68561872909699
2022-12-17T08:56:55.043Z,15.220735785953178
2022-12-17T09:03:24.258Z,15.053511705685619
2022-12-17T09:11:34.205Z,17.612040133779264
2022-12-17T09:23:30.039Z,17.48494983277592
2022-12-17T09:32:58.088Z,13.548494983277592
2022-12-17T09:39:23.057Z,10.632107023411372
2022-12-17T09:52:48.827Z,10.518394648829432
2022-12-17T09:59:15.045Z,10.14046822742475
2022-12-17T10:06:45.550Z,10.725752508361204
2022-12-17T10:15:06.328Z,12.367892976588628
2022-12-17T10:25:58.472Z,11.2876254180602
2022-12-17T10:32:27.782Z,11.866220735785953
2022-12-17T10:38:55.436Z,12.331103678929766
2022-12-17T10:46:30.109Z,13.046822742474916
2022-12-17T10:52:56.593Z,13.678929765886288
2022-12-17T10:59:27.466Z,13.133779264214047
2022-12-17T11:13:47.320Z,13.755852842809364
2022-12-17T11:20:12.354Z,14.016722408026755
2022-12-17T11:37:28.565Z,15.816053511705686
2022-12-17T11:47:26.453Z,15.053511705685619
2022-12-17T11:59:11.254Z,18.812709030100333
2022-12-17T12:19:50.061Z,14.438127090301004
2022-12-17T12:30:57.352Z,13.866220735785953
2022-12-17T12:37:19.896Z,13.933110367892976
2022-12-17T12:43:43.235Z,14.334448160535118
2022-12-17T12:50:05.175Z,14.648829431438127
2022-12-17T12:56:27.081Z,13.290969899665551
2022-12-17T13:02:48.559Z,11.799331103678929
2022-12-17T13:09:10.601Z,12.602006688963211
2022-12-17T13:15:33.270Z,13.22742474916388
2022-12-17T13:21:54.097Z,13.816053511705686
2022-12-17T13:28:15.695Z,14.498327759197325
2022-12-17T13:34:37.308Z,11.327759197324415
2022-12-17T13:40:58.844Z,12.414715719063546
2022-12-17T13:47:21.092Z,11.638795986622073
2022-12-17T13:53:42.504Z,13.150501672240802
2022-12-17T14:00:04.754Z,11.304347826086957
2022-12-17T14:06:26.625Z,11.722408026755852
2022-12-17T14:12:48.902Z,11.130434782608695
2022-12-17T14:32:37.028Z,11.919732441471572
2022-12-17T14:40:30.974Z,12.852842809364548
2022-12-17T14:56:27.544Z,12.270903010033445
2022-12-17T15:10:24.671Z,13.180602006688963
2022-12-17T15:16:48.519Z,12.809364548494983
2022-12-17T15:26:16.019Z,13.408026755852843
2022-12-17T15:35:34.971Z,11.852842809364548
2022-12-17T15:41:59.592Z,13.25418060200669
2022-12-17T15:48:24.285Z,13.250836120401338
2022-12-17T16:06:14.626Z,13.006688963210703
2022-12-17T16:12:40.540Z,12.749163879598662
2022-12-17T16:19:05.944Z,13.080267558528428
2022-12-17T16:31:07.146Z,11.74581939799331
2022-12-17T16:37:30.674Z,12.85953177257525
2022-12-17T16:43:54.440Z,12.555183946488294
2022-12-17T16:50:16.976Z,13.96989966555184
2022-12-17T16:56:47.684Z,13.160535117056856
2022-12-17T17:03:40.242Z,14.066889632107024
2022-12-17T17:10:01.966Z,11.160535117056856
2022-12-17T17:18:13.874Z,13.996655518394649
2022-12-17T17:30:16.630Z,13.471571906354516
2022-12-17T17:36:39.314Z,14.050167224080267
2022-12-17T17:43:10.483Z,13.732441471571907
2022-12-17T17:55:27.841Z,14.183946488294314
2022-12-17T18:01:53.392Z,11.869565217391305
2022-12-17T18:08:21.460Z,11.976588628762542
2022-12-17T18:15:13.162Z,12.709030100334449
2022-12-17T18:21:41.711Z,11.441471571906355
2022-12-17T18:33:29.502Z,12.538461538461538
2022-12-17T18:40:00.319Z,13.354515050167224
2022-12-17T18:46:27.745Z,12.933110367892976
2022-12-17T18:52:55.257Z,12.210702341137123
2022-12-17T19:02:28.223Z,12.130434782608695
2022-12-17T19:10:34.858Z,19.451505016722408
2022-12-17T19:17:10.533Z,19.62541806020067
2022-12-17T19:25:57.430Z,15.11371237458194
2022-12-17T19:32:20.495Z,12.76923076923077
2022-12-17T19:38:46.042Z,15.096989966555183
2022-12-17T19:45:08.012Z,13.702341137123746
2022-12-17T19:52:30.069Z,13.45819397993311
2022-12-17T20:07:10.433Z,14.545150501672241
2022-12-17T20:13:54.205Z,14.25752508361204
2022-12-17T20:20:25.773Z,12.585284280936454
2022-12-17T20:31:56.802Z,13.424749163879598
2022-12-17T20:42:10.612Z,14.244147157190636
2022-12-17T20:48:31.392Z,13.605351170568563
2022-12-17T20:54:55.792Z,15.250836120401338
2022-12-17T21:10:02.591Z,14.17056856187291
2022-12-17T21:16:25.141Z,17.123745819397993
2022-12-17T21:22:47.316Z,15.036789297658864
2022-12-17T21:29:10.060Z,13.51505016722408
2022-12-17T21:35:33.065Z,15.779264214046822
2022-12-17T21:43:55.868Z,14.006688963210703
2022-12-17T21:50:18.403Z,13.645484949832776
2022-12-17T22:00:01.431Z,13.397993311036789
2022-12-17T22:06:28.049Z,13.347826086956522
2022-12-17T22:18:20.819Z,12.34448160535117
2022-12-17T22:31:31.099Z,13.0
2022-12-17T22:44:42.957Z,12.26086956521739
2022-12-17T22:51:15.348Z,13.020066889632107
2022-12-17T22:59:18.671Z,11.280936454849499
2022-12-17T23:05:40.523Z,14.42809364548495
2022-12-17T23:12:02.696Z,11.909698996655518
2022-12-17T23:18:25.027Z,13.715719063545151
2022-12-17T23:24:46.998Z,13.635451505016722
2022-12-17T23:31:10.161Z,12.906354515050166
2022-12-17T23:43:52.891Z,11.14046822742475
2022-12-17T23:50:14.717Z,12.19732441471572
